createdAt,value
2022-07-28T00:01:29.703Z,14.09
2022-07-28T00:03:58.887Z,14.09
2022-07-28T00:06:27.723Z,14.06
2022-07-28T00:08:57.680Z,13.92
2022-07-28T00:11:26.235Z,13.99
2022-07-28T00:13:54.892Z,13.96
2022-07-28T00:16:23.664Z,13.80
2022-07-28T00:18:52.791Z,13.70
2022-07-28T00:21:21.370Z,13.91
2022-07-28T00:23:49.896Z,13.23
2022-07-28T00:26:19.891Z,13.60
2022-07-28T00:28:48.791Z,13.73
2022-07-28T00:31:17.569Z,13.86
2022-07-28T00:33:46.473Z,13.86
2022-07-28T00:36:14.908Z,13.85
2022-07-28T00:38:44.071Z,13.84
2022-07-28T00:41:13.864Z,13.82
2022-07-28T00:43:45.788Z,13.72
2022-07-28T00:46:16.325Z,13.76
2022-07-28T00:48:46.700Z,13.71
2022-07-28T00:51:17.673Z,13.66
2022-07-28T00:53:47.239Z,13.63
2022-07-28T00:56:16.225Z,13.60
2022-07-28T00:58:47.472Z,13.57
2022-07-28T01:01:19.943Z,13.52
2022-07-28T01:03:53.559Z,13.47
2022-07-28T01:06:49.599Z,13.42
2022-07-28T01:09:29.912Z,13.34
2022-07-28T01:12:04.211Z,13.27
2022-07-28T01:14:39.860Z,13.20
2022-07-28T01:17:15.896Z,13.14
2022-07-28T01:19:50.353Z,12.92
2022-07-28T01:22:24.020Z,13.10
2022-07-28T01:24:57.812Z,12.96
2022-07-28T01:27:38.250Z,12.98
2022-07-28T01:30:12.491Z,12.97
2022-07-28T01:32:47.724Z,12.83
2022-07-28T01:35:21.580Z,12.90
2022-07-28T01:37:53.314Z,12.83
2022-07-28T01:40:27.473Z,12.79
2022-07-28T01:43:00.042Z,12.77
2022-07-28T01:45:30.301Z,12.76
2022-07-28T01:48:03.412Z,12.76
2022-07-28T01:50:33.529Z,12.54
2022-07-28T01:53:03.172Z,12.76
2022-07-28T01:55:33.812Z,12.77
2022-07-28T01:58:04.464Z,12.44
2022-07-28T02:00:34.705Z,12.47
2022-07-28T02:03:07.720Z,12.57
2022-07-28T02:05:37.968Z,12.59
2022-07-28T02:08:08.662Z,12.34
2022-07-28T02:10:39.883Z,12.52
2022-07-28T02:13:10.019Z,12.50
2022-07-28T02:15:41.013Z,12.43
2022-07-28T02:18:12.658Z,12.39
2022-07-28T02:20:42.117Z,12.37
2022-07-28T02:23:14.644Z,12.34
2022-07-28T02:25:43.597Z,12.32
2022-07-28T02:28:13.661Z,12.30
2022-07-28T02:30:48.556Z,12.08
2022-07-28T02:33:34.663Z,11.83
2022-07-28T02:36:16.312Z,12.20
2022-07-28T02:38:48.191Z,12.19
2022-07-28T02:41:23.640Z,12.16
2022-07-28T02:43:55.559Z,12.12
2022-07-28T02:46:29.145Z,12.12
2022-07-28T02:49:08.390Z,12.11
2022-07-28T02:51:38.519Z,12.10
2022-07-28T02:54:08.902Z,11.46
2022-07-28T02:56:37.823Z,12.07
2022-07-28T02:59:07.533Z,12.05
2022-07-28T03:01:36.724Z,12.06
2022-07-28T03:04:07.972Z,12.02
2022-07-28T03:06:37.666Z,12.00
2022-07-28T03:09:06.182Z,11.99
2022-07-28T03:11:36.176Z,11.97
2022-07-28T03:14:05.321Z,11.95
2022-07-28T03:16:34.399Z,11.94
2022-07-28T03:19:02.971Z,11.92
2022-07-28T03:21:32.797Z,11.88
2022-07-28T03:24:01.892Z,11.89
2022-07-28T03:26:41.423Z,10.56
2022-07-28T03:29:12.193Z,11.84
2022-07-28T03:31:42.753Z,11.76
2022-07-28T03:34:12.435Z,11.85
2022-07-28T03:36:46.000Z,11.84
2022-07-28T03:39:16.988Z,11.80
2022-07-28T03:41:46.919Z,11.67
2022-07-28T03:44:19.059Z,11.80
2022-07-28T03:46:56.800Z,11.77
2022-07-28T03:49:25.462Z,11.78
2022-07-28T03:51:55.755Z,11.77
2022-07-28T03:54:24.334Z,11.62
2022-07-28T03:56:52.889Z,11.76
2022-07-28T03:59:21.837Z,11.77
2022-07-28T04:01:50.934Z,11.76
2022-07-28T04:04:19.648Z,11.75
2022-07-28T04:06:48.266Z,11.74
2022-07-28T04:09:18.224Z,11.74
2022-07-28T04:11:46.760Z,11.77
2022-07-28T04:14:17.126Z,11.82
2022-07-28T04:16:46.469Z,11.87
2022-07-28T04:19:15.044Z,11.87
2022-07-28T04:21:43.935Z,11.89
2022-07-28T04:24:12.887Z,11.93
2022-07-28T04:26:44.105Z,11.76
2022-07-28T04:29:12.944Z,11.99
2022-07-28T04:31:41.392Z,12.04
2022-07-28T04:34:10.170Z,12.06
2022-07-28T04:36:42.344Z,12.11
2022-07-28T04:39:11.336Z,12.05
2022-07-28T04:41:39.870Z,12.04
2022-07-28T04:44:12.383Z,12.05
2022-07-28T04:46:41.239Z,12.03
2022-07-28T04:49:09.966Z,12.05
2022-07-28T04:51:38.459Z,12.11
2022-07-28T04:54:07.067Z,12.16
2022-07-28T04:56:35.493Z,12.23
2022-07-28T04:59:04.075Z,12.33
2022-07-28T05:01:36.149Z,12.44
2022-07-28T05:04:05.140Z,12.50
2022-07-28T05:06:33.680Z,12.57
2022-07-28T05:09:02.472Z,12.67
2022-07-28T05:11:30.984Z,12.74
2022-07-28T05:13:59.440Z,12.80
2022-07-28T05:16:27.987Z,12.84
2022-07-28T05:18:58.463Z,12.90
2022-07-28T05:21:27.433Z,12.96
2022-07-28T05:23:56.017Z,13.02
2022-07-28T05:26:24.502Z,13.04
2022-07-28T05:28:53.027Z,12.79
2022-07-28T05:31:21.693Z,13.11
2022-07-28T05:33:50.260Z,13.15
2022-07-28T05:36:22.488Z,13.16
2022-07-28T05:38:51.100Z,13.20
2022-07-28T05:41:19.549Z,13.23
2022-07-28T05:43:48.424Z,13.25
2022-07-28T05:46:16.974Z,13.27
2022-07-28T05:48:45.652Z,13.14
2022-07-28T05:51:14.176Z,12.79
2022-07-28T05:53:44.908Z,12.89
2022-07-28T05:56:13.348Z,12.97
2022-07-28T05:58:41.813Z,12.93
2022-07-28T06:01:10.444Z,12.95
2022-07-28T06:03:42.396Z,12.94
2022-07-28T06:06:15.931Z,12.87
2022-07-28T06:08:47.497Z,13.06
2022-07-28T06:11:21.600Z,13.04
2022-07-28T06:13:51.444Z,13.20
2022-07-28T06:16:21.227Z,11.91
2022-07-28T06:18:49.891Z,13.11
2022-07-28T06:21:18.568Z,13.29
2022-07-28T06:23:48.468Z,13.38
2022-07-28T06:26:17.269Z,13.17
2022-07-28T06:28:46.226Z,13.38
2022-07-28T06:31:14.812Z,13.39
2022-07-28T06:33:43.453Z,13.28
2022-07-28T06:36:12.175Z,13.57
2022-07-28T06:38:40.965Z,13.66
2022-07-28T06:41:11.212Z,13.69
2022-07-28T06:43:39.720Z,13.75
2022-07-28T06:46:08.607Z,13.73
2022-07-28T06:48:39.578Z,13.78
2022-07-28T06:51:08.884Z,13.78
2022-07-28T06:53:37.503Z,13.78
2022-07-28T06:56:06.958Z,13.80
2022-07-28T06:58:37.507Z,13.85
2022-07-28T07:01:08.066Z,13.58
2022-07-28T07:03:36.840Z,13.82
2022-07-28T07:06:05.665Z,13.80
2022-07-28T07:08:35.056Z,13.78
2022-07-28T07:11:03.738Z,13.79
2022-07-28T07:13:33.274Z,13.84
2022-07-28T07:16:03.747Z,13.88
2022-07-28T07:18:32.279Z,13.79
2022-07-28T07:21:00.739Z,14.03
2022-07-28T07:23:29.220Z,14.05
2022-07-28T07:25:57.901Z,14.07
2022-07-28T07:28:26.791Z,14.13
2022-07-28T07:30:55.247Z,14.25
2022-07-28T07:33:25.141Z,14.35
2022-07-28T07:35:53.786Z,14.31
2022-07-28T07:38:25.071Z,14.33
2022-07-28T07:40:57.427Z,14.36
2022-07-28T07:43:25.952Z,14.42
2022-07-28T07:45:55.152Z,14.36
2022-07-28T07:48:25.550Z,14.56
2022-07-28T07:50:54.518Z,14.55
2022-07-28T07:53:24.383Z,14.57
2022-07-28T07:55:53.683Z,14.67
2022-07-28T07:58:22.438Z,14.58
2022-07-28T08:00:53.460Z,14.81
2022-07-28T08:03:22.660Z,14.83
2022-07-28T08:05:57.478Z,14.87
2022-07-28T08:08:26.074Z,14.94
2022-07-28T08:10:54.529Z,14.97
2022-07-28T08:13:23.432Z,15.02
2022-07-28T08:15:52.431Z,15.08
2022-07-28T08:18:21.490Z,15.19
2022-07-28T08:20:51.622Z,15.20
2022-07-28T08:23:25.809Z,15.00
2022-07-28T08:25:54.675Z,15.33
2022-07-28T08:28:23.275Z,15.43
2022-07-28T08:30:52.732Z,15.42
2022-07-28T08:33:22.108Z,15.35
2022-07-28T08:35:52.613Z,15.62
2022-07-28T08:38:21.693Z,15.68
2022-07-28T08:40:51.671Z,15.77
2022-07-28T08:43:30.837Z,15.87
2022-07-28T08:46:01.328Z,15.90
2022-07-28T08:48:32.791Z,15.97
2022-07-28T08:51:05.776Z,16.02
2022-07-28T08:53:37.157Z,15.93
2022-07-28T08:56:07.999Z,16.16
2022-07-28T08:58:38.227Z,16.19
2022-07-28T09:01:11.185Z,16.11
2022-07-28T09:03:40.492Z,16.34
2022-07-28T09:06:11.209Z,16.43
2022-07-28T09:08:40.073Z,16.49
2022-07-28T09:11:12.229Z,16.56
2022-07-28T09:13:40.880Z,16.68
2022-07-28T09:16:11.326Z,16.86
2022-07-28T09:18:40.727Z,16.79
2022-07-28T09:21:14.199Z,16.84
2022-07-28T09:23:46.615Z,16.93
2022-07-28T09:26:15.193Z,16.97
2022-07-28T09:28:49.690Z,17.05
2022-07-28T09:31:19.700Z,17.09
2022-07-28T09:34:02.274Z,17.19
2022-07-28T09:36:39.877Z,17.31
2022-07-28T09:39:08.475Z,17.37
2022-07-28T09:41:49.114Z,17.45
2022-07-28T09:44:20.847Z,17.47
2022-07-28T09:46:49.394Z,17.60
2022-07-28T09:49:18.692Z,17.53
2022-07-28T09:52:03.578Z,17.67
2022-07-28T09:54:33.577Z,17.76
2022-07-28T09:57:05.179Z,17.81
2022-07-28T09:59:51.998Z,17.89
2022-07-28T10:02:27.969Z,18.00
2022-07-28T10:05:00.742Z,18.05
2022-07-28T10:07:31.395Z,18.11
2022-07-28T10:10:02.153Z,18.09
2022-07-28T10:12:32.776Z,18.13
2022-07-28T10:15:34.675Z,18.21
2022-07-28T10:18:04.126Z,18.30
2022-07-28T10:20:34.349Z,18.41
2022-07-28T10:23:06.177Z,18.51
2022-07-28T10:25:37.470Z,18.58
2022-07-28T10:28:07.591Z,18.66
2022-07-28T10:30:41.354Z,18.79
2022-07-28T10:33:17.334Z,18.70
2022-07-28T10:35:54.431Z,18.99
2022-07-28T10:38:29.849Z,19.03
2022-07-28T10:41:00.194Z,19.06
2022-07-28T10:43:31.156Z,19.12
2022-07-28T10:46:06.048Z,19.20
2022-07-28T10:48:37.216Z,19.35
2022-07-28T10:51:06.520Z,19.31
2022-07-28T10:53:45.177Z,19.30
2022-07-28T10:56:19.842Z,19.19
2022-07-28T10:58:56.957Z,19.29
2022-07-28T11:01:53.396Z,19.55
2022-07-28T11:04:53.471Z,19.53
2022-07-28T11:07:22.533Z,19.54
2022-07-28T11:09:53.613Z,19.57
2022-07-28T11:12:49.901Z,19.63
2022-07-28T11:15:33.349Z,19.67
2022-07-28T11:18:04.044Z,19.69
2022-07-28T11:21:10.463Z,19.89
2022-07-28T11:23:46.840Z,19.91
2022-07-28T11:26:38.189Z,20.06
2022-07-28T11:29:22.282Z,20.20
2022-07-28T11:32:02.059Z,20.29
2022-07-28T11:35:08.780Z,20.38
2022-07-28T11:38:11.516Z,20.38
2022-07-28T11:40:44.851Z,20.52
2022-07-28T11:43:45.658Z,20.57
2022-07-28T11:46:25.867Z,20.65
2022-07-28T11:49:22.205Z,20.67
2022-07-28T11:52:10.292Z,20.79
2022-07-28T11:54:40.368Z,20.86
2022-07-28T11:57:11.847Z,20.94
2022-07-28T11:59:53.502Z,21.06
2022-07-28T12:02:24.530Z,21.22
2022-07-28T12:05:06.087Z,21.28
2022-07-28T12:07:37.602Z,21.41
2022-07-28T12:13:13.943Z,21.44
2022-07-28T12:15:52.306Z,21.31
2022-07-28T12:18:20.839Z,21.62
2022-07-28T12:20:55.601Z,21.67
2022-07-28T12:23:39.011Z,21.64
2022-07-28T12:26:14.391Z,21.91
2022-07-28T12:28:51.625Z,21.98
2022-07-28T12:31:26.041Z,22.00
2022-07-28T12:33:54.676Z,22.08
2022-07-28T12:36:24.397Z,22.22
2022-07-28T12:38:53.741Z,22.23
2022-07-28T12:41:23.166Z,22.34
2022-07-28T12:43:52.557Z,22.46
2022-07-28T12:46:28.765Z,22.55
2022-07-28T12:48:58.426Z,22.48
2022-07-28T12:51:35.634Z,22.49
2022-07-28T12:54:05.157Z,22.61
2022-07-28T12:56:46.376Z,22.79
2022-07-28T12:59:15.590Z,22.93
2022-07-28T13:01:53.384Z,23.07
2022-07-28T13:04:40.759Z,23.19
2022-07-28T13:07:11.949Z,23.26
2022-07-28T13:09:53.226Z,23.17
2022-07-28T13:12:31.124Z,23.35
2022-07-28T13:15:01.117Z,23.55
2022-07-28T13:17:49.247Z,23.67
2022-07-28T13:20:18.305Z,23.74
2022-07-28T13:22:47.158Z,23.90
2022-07-28T13:25:16.217Z,23.91
2022-07-28T13:27:44.969Z,23.89
2022-07-28T13:30:14.033Z,23.99
2022-07-28T13:32:43.999Z,23.68
2022-07-28T13:35:15.204Z,23.82
2022-07-28T13:37:44.256Z,23.91
2022-07-28T13:40:13.783Z,24.05
2022-07-28T13:42:53.449Z,24.23
2022-07-28T13:45:29.993Z,24.37
2022-07-28T13:48:00.674Z,24.57
2022-07-28T13:50:29.555Z,24.70
2022-07-28T13:52:59.907Z,24.83
2022-07-28T13:55:29.977Z,24.89
2022-07-28T13:57:58.480Z,25.09
2022-07-28T14:00:27.969Z,25.32
2022-07-28T14:02:59.808Z,25.57
2022-07-28T14:05:32.114Z,25.83
2022-07-28T14:08:00.939Z,26.01
2022-07-28T14:10:29.671Z,26.10
2022-07-28T14:12:58.217Z,26.14
2022-07-28T14:15:27.098Z,26.11
2022-07-28T14:17:55.973Z,26.22
2022-07-28T14:20:25.866Z,26.38
2022-07-28T14:22:54.359Z,26.25
2022-07-28T14:25:23.253Z,26.22
2022-07-28T14:27:53.222Z,26.23
2022-07-28T14:30:22.672Z,26.46
2022-07-28T14:32:51.417Z,26.61
2022-07-28T14:35:20.539Z,26.78
2022-07-28T14:40:40.321Z,26.65
2022-07-28T14:43:09.522Z,26.86
2022-07-28T14:45:51.242Z,26.88
2022-07-28T14:48:26.446Z,26.96
2022-07-28T14:50:55.675Z,27.15
2022-07-28T14:53:27.926Z,27.34
2022-07-28T14:55:57.381Z,27.44
2022-07-28T14:58:26.033Z,27.61
2022-07-28T15:00:55.141Z,27.76
2022-07-28T15:03:23.930Z,27.93
2022-07-28T15:05:52.377Z,28.08
2022-07-28T15:08:20.916Z,28.22
2022-07-28T15:10:55.814Z,28.27
2022-07-28T15:13:24.318Z,28.24
2022-07-28T15:15:52.992Z,28.27
2022-07-28T15:18:21.959Z,28.26
2022-07-28T15:20:54.913Z,28.01
2022-07-28T15:23:23.783Z,27.65
2022-07-28T15:25:53.326Z,27.49
2022-07-28T15:28:24.289Z,27.14
2022-07-28T15:30:53.200Z,26.87
2022-07-28T15:33:22.144Z,26.70
2022-07-28T15:35:58.532Z,26.60
2022-07-28T15:38:29.216Z,26.46
2022-07-28T15:40:59.346Z,26.33
2022-07-28T15:43:30.473Z,26.25
2022-07-28T15:45:59.216Z,26.10
2022-07-28T15:48:27.834Z,25.97
2022-07-28T15:50:57.313Z,25.89
2022-07-28T15:53:25.721Z,25.74
2022-07-28T15:55:54.844Z,25.61
2022-07-28T15:58:26.501Z,25.37
2022-07-28T16:00:56.625Z,25.42
2022-07-28T16:03:29.922Z,25.24
2022-07-28T16:05:58.987Z,24.83
2022-07-28T16:08:28.237Z,24.36
2022-07-28T16:10:57.079Z,24.84
2022-07-28T16:13:33.405Z,24.76
2022-07-28T16:16:08.799Z,24.72
2022-07-28T16:18:38.725Z,24.58
2022-07-28T16:21:08.753Z,24.51
2022-07-28T16:23:37.714Z,24.45
2022-07-28T16:26:08.265Z,24.43
2022-07-28T16:28:44.296Z,24.18
2022-07-28T16:31:17.933Z,23.84
2022-07-28T16:33:55.397Z,24.05
2022-07-28T16:36:25.376Z,24.02
2022-07-28T16:38:54.442Z,23.97
2022-07-28T16:41:23.750Z,24.00
2022-07-28T16:44:12.972Z,23.92
2022-07-28T16:46:43.316Z,23.88
2022-07-28T16:49:12.065Z,23.79
2022-07-28T16:51:40.623Z,23.53
2022-07-28T16:54:09.443Z,23.59
2022-07-28T16:56:38.489Z,23.57
2022-07-28T16:59:08.319Z,23.49
2022-07-28T17:01:39.802Z,23.46
2022-07-28T17:04:13.525Z,23.42
2022-07-28T17:06:44.123Z,23.37
2022-07-28T17:09:14.716Z,23.08
2022-07-28T17:11:44.826Z,23.18
2022-07-28T17:14:14.893Z,23.13
2022-07-28T17:16:45.094Z,23.10
2022-07-28T17:19:16.366Z,23.07
2022-07-28T17:21:45.182Z,23.04
2022-07-28T17:24:14.336Z,22.97
2022-07-28T17:29:34.764Z,22.87
2022-07-28T17:32:05.184Z,22.84
2022-07-28T17:34:37.327Z,22.78
2022-07-28T17:37:07.763Z,22.73
2022-07-28T17:39:37.929Z,22.69
2022-07-28T17:42:07.995Z,22.67
2022-07-28T17:44:38.193Z,22.64
2022-07-28T17:47:08.123Z,22.58
2022-07-28T17:49:45.189Z,22.51
2022-07-28T17:52:15.666Z,22.45
2022-07-28T17:55:02.782Z,22.38
2022-07-28T17:57:37.655Z,22.34
2022-07-28T18:00:09.400Z,22.28
2022-07-28T18:02:38.610Z,22.16
2022-07-28T18:05:10.749Z,22.08
2022-07-28T18:07:51.278Z,22.01
2022-07-28T18:10:25.053Z,21.70
2022-07-28T18:12:56.346Z,21.59
2022-07-28T18:15:25.155Z,21.67
2022-07-28T18:17:56.038Z,21.27
2022-07-28T18:20:26.425Z,21.39
2022-07-28T18:22:55.103Z,21.16
2022-07-28T18:25:23.567Z,21.12
2022-07-28T18:27:52.149Z,21.01
2022-07-28T18:30:20.957Z,20.93
2022-07-28T18:32:49.602Z,20.75
2022-07-28T18:35:19.248Z,20.84
2022-07-28T18:37:49.852Z,20.79
2022-07-28T18:40:21.629Z,20.71
2022-07-28T18:42:50.515Z,20.33
2022-07-28T18:45:19.680Z,20.58
2022-07-28T18:47:48.337Z,20.52
2022-07-28T18:50:28.002Z,20.48
2022-07-28T18:53:01.789Z,20.42
2022-07-28T18:55:31.097Z,20.40
2022-07-28T18:57:59.628Z,20.35
2022-07-28T19:00:28.166Z,20.32
2022-07-28T19:02:57.166Z,20.28
2022-07-28T19:05:26.162Z,20.24
2022-07-28T19:07:54.733Z,18.96
2022-07-28T19:10:24.894Z,20.13
2022-07-28T19:12:54.415Z,20.09
2022-07-28T19:15:23.163Z,20.03
2022-07-28T19:18:10.672Z,19.98
2022-07-28T19:20:41.819Z,19.90
2022-07-28T19:23:11.915Z,19.84
2022-07-28T19:25:44.354Z,19.77
2022-07-28T19:28:14.031Z,19.71
2022-07-28T19:30:45.754Z,19.58
2022-07-28T19:33:19.332Z,19.44
2022-07-28T19:35:50.114Z,19.56
2022-07-28T19:38:20.053Z,19.52
2022-07-28T19:40:51.755Z,19.45
2022-07-28T19:43:21.555Z,19.32
2022-07-28T19:45:52.512Z,19.32
2022-07-28T19:48:22.591Z,19.24
2022-07-28T19:50:53.131Z,19.08
2022-07-28T19:53:25.104Z,19.12
2022-07-28T19:56:03.654Z,19.06
2022-07-28T19:58:37.232Z,19.01
2022-07-28T20:01:07.946Z,18.97
2022-07-28T20:04:03.042Z,18.91
2022-07-28T20:06:29.214Z,18.83
2022-07-28T20:08:58.904Z,18.80
2022-07-28T20:11:30.921Z,18.76
2022-07-28T20:14:00.856Z,18.73
2022-07-28T20:16:31.560Z,18.68
2022-07-28T20:19:02.481Z,18.62
2022-07-28T20:21:39.384Z,18.37
2022-07-28T20:24:10.540Z,18.36
2022-07-28T20:26:41.797Z,18.46
2022-07-28T20:29:11.999Z,17.46
2022-07-28T20:31:41.815Z,18.32
2022-07-28T20:34:13.767Z,18.27
2022-07-28T20:36:44.228Z,18.21
2022-07-28T20:39:42.167Z,16.23
2022-07-28T20:42:08.386Z,18.00
2022-07-28T20:44:38.939Z,18.10
2022-07-28T20:47:08.948Z,18.08
2022-07-28T20:49:39.786Z,18.07
2022-07-28T20:52:09.544Z,18.04
2022-07-28T20:54:40.066Z,18.02
2022-07-28T20:57:11.730Z,17.98
2022-07-28T20:59:40.906Z,17.92
2022-07-28T21:02:09.971Z,17.86
2022-07-28T21:04:38.458Z,17.61
2022-07-28T21:07:08.037Z,17.82
2022-07-28T21:09:37.534Z,17.79
2022-07-28T21:12:07.553Z,17.78
2022-07-28T21:14:37.486Z,17.73
2022-07-28T21:17:06.068Z,17.69
2022-07-28T21:19:34.660Z,17.68
2022-07-28T21:22:03.501Z,17.65
2022-07-28T21:24:32.053Z,17.64
2022-07-28T21:27:00.902Z,17.10
2022-07-28T21:29:28.287Z,17.59
2022-07-28T21:32:05.477Z,17.59
2022-07-28T21:34:35.565Z,17.57
2022-07-28T21:37:04.836Z,17.55
2022-07-28T21:39:34.121Z,17.54
2022-07-28T21:42:07.553Z,17.39
2022-07-28T21:44:36.871Z,17.49
2022-07-28T21:47:07.262Z,17.50
2022-07-28T21:49:35.713Z,17.49
2022-07-28T21:52:04.268Z,17.48
2022-07-28T21:54:32.878Z,17.46
2022-07-28T21:57:01.696Z,17.46
2022-07-28T21:59:30.160Z,17.46
2022-07-28T22:01:58.751Z,17.47
2022-07-28T22:04:29.129Z,17.33
2022-07-28T22:06:57.598Z,17.47
2022-07-28T22:09:26.110Z,17.31
2022-07-28T22:11:54.630Z,17.49
2022-07-28T22:14:25.630Z,17.49
2022-07-28T22:16:54.559Z,17.48
2022-07-28T22:19:23.067Z,17.47
2022-07-28T22:21:54.180Z,17.48
2022-07-28T22:24:22.968Z,17.45
2022-07-28T22:26:52.169Z,17.45
2022-07-28T22:29:20.650Z,17.30
2022-07-28T22:31:49.684Z,17.47
2022-07-28T22:34:18.315Z,17.48
2022-07-28T22:36:46.947Z,17.49
2022-07-28T22:39:16.873Z,17.51
2022-07-28T22:41:46.927Z,17.50
2022-07-28T22:44:15.840Z,17.50
2022-07-28T22:46:44.924Z,17.42
2022-07-28T22:49:13.509Z,17.49
2022-07-28T22:51:46.452Z,17.49
2022-07-28T22:54:18.480Z,17.48
2022-07-28T22:56:47.914Z,17.47
2022-07-28T22:59:17.729Z,16.82
2022-07-28T23:01:46.465Z,17.44
2022-07-28T23:04:15.792Z,17.31
2022-07-28T23:06:45.150Z,17.39
2022-07-28T23:09:13.662Z,17.35
2022-07-28T23:11:55.552Z,17.08
2022-07-28T23:14:24.902Z,17.25
2022-07-28T23:16:53.483Z,17.22
2022-07-28T23:19:23.426Z,17.02
2022-07-28T23:21:52.252Z,17.18
2022-07-28T23:24:21.134Z,17.15
2022-07-28T23:26:51.106Z,17.09
2022-07-28T23:29:19.513Z,17.07
2022-07-28T23:31:49.716Z,17.03
2022-07-28T23:34:19.110Z,16.85
2022-07-28T23:36:48.273Z,16.83
2022-07-28T23:39:17.030Z,16.98
2022-07-28T23:41:45.830Z,16.95
2022-07-28T23:44:16.256Z,16.94
2022-07-28T23:46:45.403Z,16.92
2022-07-28T23:49:15.355Z,16.91
2022-07-28T23:51:47.571Z,16.90
2022-07-28T23:54:17.788Z,16.84
2022-07-28T23:56:47.070Z,16.80
2022-07-28T23:59:16.959Z,16.74
